createdAt,value
2023-02-08T00:00:43.595Z,23.13
2023-02-08T00:03:10.242Z,23.40
2023-02-08T00:05:37.065Z,23.38
2023-02-08T00:08:04.744Z,21.23
2023-02-08T00:10:31.524Z,20.17
2023-02-08T00:12:58.242Z,20.23
2023-02-08T00:15:24.891Z,24.38
2023-02-08T00:17:51.379Z,24.05
2023-02-08T00:20:18.181Z,20.73
2023-02-08T00:22:48.665Z,23.42
2023-02-08T00:25:15.202Z,23.65
2023-02-08T00:27:41.804Z,21.85
2023-02-08T00:30:09.067Z,24.35
2023-02-08T00:32:35.618Z,20.38
2023-02-08T00:35:02.348Z,20.67
2023-02-08T00:37:29.697Z,24.35
2023-02-08T00:39:56.316Z,25.73
2023-02-08T00:42:23.700Z,24.50
2023-02-08T00:44:50.324Z,22.20
2023-02-08T00:47:17.122Z,19.08
2023-02-08T00:49:43.781Z,20.48
2023-02-08T00:52:10.302Z,23.33
2023-02-08T00:54:36.958Z,22.08
2023-02-08T00:57:04.939Z,23.10
2023-02-08T00:59:31.755Z,20.63
2023-02-08T01:01:58.315Z,27.83
2023-02-08T01:04:25.073Z,24.77
2023-02-08T01:06:51.620Z,20.95
2023-02-08T01:09:18.130Z,26.50
2023-02-08T01:11:44.669Z,27.60
2023-02-08T01:14:12.267Z,20.85
2023-02-08T01:16:38.837Z,27.83
2023-02-08T01:19:05.779Z,20.42
2023-02-08T01:21:38.395Z,20.80
2023-02-08T01:24:05.460Z,21.27
2023-02-08T01:26:32.204Z,24.33
2023-02-08T01:28:59.418Z,26.13
2023-02-08T01:31:31.311Z,25.02
2023-02-08T01:34:00.529Z,25.60
2023-02-08T01:36:28.633Z,21.63
2023-02-08T01:38:55.508Z,27.02
2023-02-08T01:41:44.433Z,23.70
2023-02-08T01:44:10.819Z,27.45
2023-02-08T01:46:42.195Z,22.38
2023-02-08T01:49:12.880Z,19.70
2023-02-08T01:51:43.185Z,24.90
2023-02-08T01:54:11.198Z,30.73
2023-02-08T01:56:41.904Z,23.50
2023-02-08T01:59:13.142Z,22.40
2023-02-08T02:01:40.311Z,26.67
2023-02-08T02:04:07.472Z,19.25
2023-02-08T02:06:37.109Z,27.50
2023-02-08T02:09:19.768Z,27.30
2023-02-08T02:11:46.277Z,20.08
2023-02-08T02:14:13.069Z,25.90
2023-02-08T02:16:39.629Z,25.10
2023-02-08T02:19:12.706Z,27.35
2023-02-08T02:21:57.999Z,20.40
2023-02-08T02:24:42.611Z,19.77
2023-02-08T02:27:14.885Z,24.70
2023-02-08T02:29:49.178Z,23.65
2023-02-08T02:32:24.517Z,26.48
2023-02-08T02:35:02.396Z,25.02
2023-02-08T02:37:55.040Z,28.90
2023-02-08T02:40:34.640Z,24.70
2023-02-08T02:43:41.801Z,23.58
2023-02-08T02:46:17.255Z,28.75
2023-02-08T02:49:02.013Z,29.08
2023-02-08T02:51:40.785Z,25.90
2023-02-08T02:54:14.528Z,21.70
2023-02-08T02:56:46.099Z,24.17
2023-02-08T02:59:13.842Z,28.10
2023-02-08T03:01:43.053Z,28.17
2023-02-08T03:04:35.550Z,23.35
2023-02-08T03:07:06.461Z,23.23
2023-02-08T03:09:39.752Z,19.10
2023-02-08T03:12:41.454Z,19.98
2023-02-08T03:15:38.879Z,30.42
2023-02-08T03:18:18.457Z,22.30
2023-02-08T03:20:49.209Z,20.40
2023-02-08T03:23:22.537Z,23.52
2023-02-08T03:26:11.366Z,22.13
2023-02-08T03:28:50.295Z,22.77
2023-02-08T03:31:25.700Z,21.35
2023-02-08T03:34:09.367Z,28.65
2023-02-08T03:36:47.988Z,20.92
2023-02-08T03:39:18.229Z,22.33
2023-02-08T03:41:46.608Z,22.98
2023-02-08T03:44:21.797Z,21.48
2023-02-08T03:47:08.995Z,23.00
2023-02-08T03:49:36.578Z,23.67
2023-02-08T03:52:06.398Z,22.45
2023-02-08T03:54:37.346Z,23.50
2023-02-08T03:59:35.611Z,21.90
2023-02-08T04:02:04.106Z,29.85
2023-02-08T04:04:33.593Z,19.63
2023-02-08T04:07:00.272Z,21.77
2023-02-08T04:09:26.909Z,18.92
2023-02-08T04:11:53.541Z,25.33
2023-02-08T04:14:20.138Z,19.08
2023-02-08T04:16:46.699Z,25.13
2023-02-08T04:19:13.223Z,28.05
2023-02-08T04:21:39.779Z,25.92
2023-02-08T04:24:06.567Z,18.58
2023-02-08T04:26:33.119Z,21.13
2023-02-08T04:28:59.644Z,23.60
2023-02-08T04:31:26.332Z,23.90
2023-02-08T04:33:52.942Z,23.92
2023-02-08T04:36:19.557Z,24.65
2023-02-08T04:38:46.042Z,17.75
2023-02-08T04:41:12.571Z,23.40
2023-02-08T04:43:39.043Z,18.85
2023-02-08T04:46:05.662Z,23.55
2023-02-08T04:48:32.255Z,27.05
2023-02-08T04:50:59.138Z,20.15
2023-02-08T04:53:25.832Z,20.38
2023-02-08T04:55:52.593Z,18.25
2023-02-08T04:58:19.242Z,23.35
2023-02-08T05:00:45.776Z,22.50
2023-02-08T05:03:13.123Z,26.42
2023-02-08T05:05:39.590Z,20.48
2023-02-08T05:08:06.254Z,21.70
2023-02-08T05:10:32.873Z,21.13
2023-02-08T05:12:59.470Z,19.17
2023-02-08T05:15:26.130Z,23.80
2023-02-08T05:17:52.666Z,22.75
2023-02-08T05:20:19.188Z,21.90
2023-02-08T05:22:45.729Z,23.35
2023-02-08T05:25:12.296Z,21.13
2023-02-08T05:27:38.904Z,20.17
2023-02-08T05:30:05.814Z,19.92
2023-02-08T05:32:32.296Z,21.25
2023-02-08T05:34:58.824Z,23.05
2023-02-08T05:37:25.347Z,21.80
2023-02-08T05:39:51.872Z,20.00
2023-02-08T05:42:18.400Z,18.60
2023-02-08T05:44:44.974Z,20.50
2023-02-08T05:47:11.496Z,22.35
2023-02-08T05:49:38.069Z,19.90
2023-02-08T05:52:04.924Z,24.38
2023-02-08T05:54:32.166Z,20.75
2023-02-08T05:56:58.634Z,22.15
2023-02-08T05:59:25.417Z,23.20
2023-02-08T06:01:51.982Z,20.77
2023-02-08T06:04:18.626Z,19.30
2023-02-08T06:06:45.281Z,21.67
2023-02-08T06:09:11.801Z,25.02
2023-02-08T06:11:38.280Z,20.30
2023-02-08T06:14:04.762Z,22.85
2023-02-08T06:16:31.274Z,21.85
2023-02-08T06:18:58.231Z,22.60
2023-02-08T06:21:25.076Z,21.42
2023-02-08T06:23:51.702Z,20.23
2023-02-08T06:26:18.259Z,25.38
2023-02-08T06:28:44.864Z,20.85
2023-02-08T06:31:11.440Z,21.88
2023-02-08T06:33:38.196Z,20.50
2023-02-08T06:36:05.206Z,21.27
2023-02-08T06:38:32.048Z,22.20
2023-02-08T06:40:58.876Z,21.48
2023-02-08T06:43:25.682Z,24.33
2023-02-08T06:45:52.256Z,25.25
2023-02-08T06:48:18.805Z,19.98
2023-02-08T06:50:45.349Z,27.83
2023-02-08T06:53:11.900Z,22.50
2023-02-08T06:55:38.969Z,26.08
2023-02-08T06:58:05.516Z,22.23
2023-02-08T07:00:32.732Z,25.23
2023-02-08T07:03:00.960Z,21.55
2023-02-08T07:05:27.805Z,21.00
2023-02-08T07:07:55.205Z,33.00
2023-02-08T07:10:21.776Z,22.13
2023-02-08T07:12:48.337Z,21.33
2023-02-08T07:15:15.167Z,20.17
2023-02-08T07:17:41.697Z,23.35
2023-02-08T07:20:09.171Z,25.75
2023-02-08T07:22:35.684Z,22.88
2023-02-08T07:25:02.235Z,23.52
2023-02-08T07:27:28.779Z,23.98
2023-02-08T07:29:55.471Z,24.05
2023-02-08T07:32:23.064Z,19.35
2023-02-08T07:34:49.953Z,19.90
2023-02-08T07:37:16.931Z,26.48
2023-02-08T07:39:43.444Z,26.67
2023-02-08T07:42:10.123Z,22.85
2023-02-08T07:44:49.074Z,24.27
2023-02-08T07:47:16.970Z,21.02
2023-02-08T07:49:43.507Z,23.55
2023-02-08T07:52:10.011Z,23.88
2023-02-08T07:54:36.812Z,19.20
2023-02-08T07:57:03.916Z,22.75
2023-02-08T07:59:30.420Z,19.92
2023-02-08T08:01:57.203Z,18.23
2023-02-08T08:04:23.784Z,28.88
2023-02-08T08:06:51.426Z,16.83
2023-02-08T08:09:17.976Z,18.77
2023-02-08T08:11:44.520Z,20.05
2023-02-08T08:14:11.050Z,17.55
2023-02-08T08:16:37.598Z,17.45
2023-02-08T08:19:04.152Z,17.38
2023-02-08T08:21:30.626Z,16.65
2023-02-08T08:23:57.118Z,16.65
2023-02-08T08:26:23.652Z,16.15
2023-02-08T08:28:50.316Z,14.05
2023-02-08T08:31:20.788Z,21.40
2023-02-08T08:33:48.158Z,19.00
2023-02-08T08:36:14.746Z,17.00
2023-02-08T08:38:41.752Z,19.13
2023-02-08T08:41:14.673Z,18.80
2023-02-08T08:43:41.214Z,17.95
2023-02-08T08:46:08.118Z,17.13
2023-02-08T08:48:35.735Z,12.75
2023-02-08T08:51:02.847Z,18.90
2023-02-08T08:53:29.486Z,16.23
2023-02-08T08:55:56.026Z,18.30
2023-02-08T08:58:22.574Z,16.75
2023-02-08T09:00:49.329Z,19.10
2023-02-08T09:03:15.909Z,21.45
2023-02-08T09:05:42.437Z,18.98
2023-02-08T09:08:08.946Z,22.88
2023-02-08T09:10:35.461Z,18.48
2023-02-08T09:13:02.043Z,17.05
2023-02-08T09:15:28.610Z,18.92
2023-02-08T09:17:55.105Z,18.52
2023-02-08T09:20:21.711Z,18.10
2023-02-08T09:22:48.314Z,22.20
2023-02-08T09:25:14.885Z,17.63
2023-02-08T09:27:41.443Z,19.17
2023-02-08T09:30:08.604Z,18.88
2023-02-08T09:32:35.350Z,20.20
2023-02-08T09:35:02.648Z,14.95
2023-02-08T09:37:29.756Z,18.83
2023-02-08T09:39:58.501Z,13.90
2023-02-08T09:42:44.575Z,17.85
2023-02-08T09:45:36.653Z,17.00
2023-02-08T09:48:05.268Z,16.42
2023-02-08T09:50:34.587Z,18.08
2023-02-08T09:53:28.696Z,11.70
2023-02-08T09:55:59.490Z,16.40
2023-02-08T09:58:37.920Z,14.85
2023-02-08T10:01:07.548Z,15.52
2023-02-08T10:03:44.371Z,15.80
2023-02-08T10:06:18.329Z,16.33
2023-02-08T10:08:46.460Z,18.48
2023-02-08T10:11:58.259Z,13.25
2023-02-08T10:14:34.530Z,16.20
2023-02-08T10:17:06.865Z,12.90
2023-02-08T10:20:15.199Z,17.20
2023-02-08T10:23:04.659Z,15.73
2023-02-08T10:25:47.003Z,13.35
2023-02-08T10:28:21.633Z,13.80
2023-02-08T10:30:57.510Z,15.07
2023-02-08T10:33:32.301Z,15.30
2023-02-08T10:35:58.862Z,17.15
2023-02-08T10:38:44.105Z,17.02
2023-02-08T10:41:17.279Z,12.77
2023-02-08T10:43:54.316Z,12.50
2023-02-08T10:46:38.093Z,15.20
2023-02-08T10:49:21.073Z,14.20
2023-02-08T10:51:47.746Z,12.50
2023-02-08T10:54:15.091Z,10.98
2023-02-08T10:57:02.401Z,11.10
2023-02-08T10:59:35.936Z,10.73
2023-02-08T11:02:02.623Z,12.73
2023-02-08T11:04:29.342Z,9.68
2023-02-08T11:06:55.978Z,12.35
2023-02-08T11:09:25.142Z,13.60
2023-02-08T11:11:52.635Z,27.77
2023-02-08T11:14:23.751Z,11.05
2023-02-08T11:16:55.100Z,10.73
2023-02-08T11:21:51.539Z,17.55
2023-02-08T11:24:17.985Z,10.32
2023-02-08T11:26:44.553Z,10.40
2023-02-08T11:29:19.526Z,13.07
2023-02-08T11:32:02.754Z,19.98
2023-02-08T11:34:34.575Z,12.23
2023-02-08T11:37:03.661Z,11.07
2023-02-08T11:39:41.650Z,9.15
2023-02-08T11:42:19.407Z,11.52
2023-02-08T11:44:46.052Z,9.30
2023-02-08T11:47:17.170Z,11.18
2023-02-08T11:49:51.274Z,9.82
2023-02-08T11:52:32.204Z,12.32
2023-02-08T11:55:34.651Z,12.15
2023-02-08T11:58:23.590Z,8.98
2023-02-08T12:01:02.185Z,9.23
2023-02-08T12:03:33.600Z,13.23
2023-02-08T12:06:06.244Z,9.98
2023-02-08T12:08:51.440Z,10.60
2023-02-08T12:11:53.239Z,10.32
2023-02-08T12:14:27.235Z,7.05
2023-02-08T12:17:00.119Z,10.35
2023-02-08T12:19:40.456Z,8.25
2023-02-08T12:22:11.156Z,8.90
2023-02-08T12:24:54.963Z,10.45
2023-02-08T12:27:43.417Z,8.95
2023-02-08T12:30:22.341Z,13.27
2023-02-08T12:33:17.293Z,10.45
2023-02-08T12:36:03.202Z,8.50
2023-02-08T12:39:18.540Z,11.30
2023-02-08T12:42:08.482Z,13.82
2023-02-08T12:44:34.917Z,7.78
2023-02-08T12:47:35.150Z,10.80
2023-02-08T12:50:13.737Z,8.88
2023-02-08T12:52:43.817Z,6.78
2023-02-08T12:55:22.274Z,10.02
2023-02-08T12:58:06.322Z,7.43
2023-02-08T13:00:35.234Z,7.20
2023-02-08T13:03:12.482Z,8.57
2023-02-08T13:05:50.825Z,13.38
2023-02-08T13:08:34.065Z,7.40
2023-02-08T13:11:18.831Z,6.82
2023-02-08T13:13:53.716Z,8.90
2023-02-08T13:16:23.355Z,6.88
2023-02-08T13:19:05.428Z,7.90
2023-02-08T13:21:37.913Z,7.65
2023-02-08T13:24:06.806Z,7.88
2023-02-08T13:26:35.521Z,7.38
2023-02-08T13:29:02.836Z,10.00
2023-02-08T13:31:33.659Z,6.90
2023-02-08T13:34:07.936Z,10.45
2023-02-08T13:36:39.849Z,8.35
2023-02-08T13:39:26.737Z,16.10
2023-02-08T13:41:55.455Z,9.40
2023-02-08T13:44:29.635Z,7.88
2023-02-08T13:46:57.546Z,7.38
2023-02-08T13:49:46.098Z,9.75
2023-02-08T13:52:48.162Z,7.03
2023-02-08T13:55:33.472Z,7.38
2023-02-08T13:58:37.322Z,9.40
2023-02-08T14:01:24.191Z,10.82
2023-02-08T14:04:09.815Z,12.27
2023-02-08T14:06:37.582Z,9.18
2023-02-08T14:09:13.122Z,8.25
2023-02-08T14:12:00.920Z,7.80
2023-02-08T14:14:40.261Z,6.57
2023-02-08T14:17:07.000Z,7.88
2023-02-08T14:19:35.652Z,7.00
2023-02-08T14:22:12.724Z,9.63
2023-02-08T14:24:43.855Z,12.23
2023-02-08T14:27:25.114Z,11.30
2023-02-08T14:30:18.419Z,8.02
2023-02-08T14:32:50.722Z,8.55
2023-02-08T14:35:26.379Z,8.55
2023-02-08T14:38:20.667Z,9.23
2023-02-08T14:41:01.027Z,6.80
2023-02-08T14:43:35.799Z,7.63
2023-02-08T14:46:40.075Z,7.55
2023-02-08T14:49:12.208Z,6.95
2023-02-08T14:51:41.195Z,13.45
2023-02-08T14:54:19.030Z,8.15
2023-02-08T14:56:53.210Z,7.47
2023-02-08T14:59:23.389Z,14.15
2023-02-08T15:01:54.146Z,7.72
2023-02-08T15:04:20.867Z,8.65
2023-02-08T15:07:02.983Z,8.15
2023-02-08T15:09:31.748Z,6.15
2023-02-08T15:12:06.043Z,10.43
2023-02-08T15:14:35.011Z,10.35
2023-02-08T15:17:01.974Z,7.80
2023-02-08T15:19:32.164Z,6.60
2023-02-08T15:22:23.832Z,6.22
2023-02-08T15:25:01.654Z,6.15
2023-02-08T15:27:32.144Z,6.95
2023-02-08T15:29:58.947Z,9.35
2023-02-08T15:32:27.952Z,6.85
2023-02-08T15:35:02.692Z,6.38
2023-02-08T15:37:32.666Z,9.50
2023-02-08T15:40:00.332Z,8.75
2023-02-08T15:42:31.614Z,5.75
2023-02-08T15:45:00.438Z,6.75
2023-02-08T15:47:35.923Z,6.88
2023-02-08T15:50:04.005Z,7.68
2023-02-08T15:52:33.393Z,9.48
2023-02-08T15:54:59.994Z,6.43
2023-02-08T15:57:45.083Z,5.53
2023-02-08T16:00:32.370Z,6.03
2023-02-08T16:03:01.739Z,7.53
2023-02-08T16:05:30.454Z,4.97
2023-02-08T16:08:00.496Z,5.75
2023-02-08T16:10:43.189Z,5.97
2023-02-08T16:13:21.488Z,7.13
2023-02-08T16:15:53.611Z,7.13
2023-02-08T16:18:34.159Z,7.88
2023-02-08T16:21:02.898Z,5.85
2023-02-08T16:23:34.360Z,6.70
2023-02-08T16:26:12.933Z,9.77
2023-02-08T16:28:39.767Z,7.78
2023-02-08T16:31:07.906Z,5.22
2023-02-08T16:33:37.263Z,6.60
2023-02-08T16:36:04.191Z,9.48
2023-02-08T16:38:33.811Z,7.32
2023-02-08T16:41:12.180Z,6.32
2023-02-08T16:43:43.841Z,13.93
2023-02-08T16:46:10.426Z,6.60
2023-02-08T16:48:38.901Z,8.73
2023-02-08T16:51:18.965Z,7.63
2023-02-08T16:53:47.511Z,18.98
2023-02-08T16:56:14.373Z,10.38
2023-02-08T16:58:40.885Z,11.65
2023-02-08T17:01:11.337Z,12.23
2023-02-08T17:03:38.372Z,12.10
2023-02-08T17:06:05.226Z,14.55
2023-02-08T17:08:32.989Z,12.02
2023-02-08T17:10:59.515Z,12.00
2023-02-08T17:13:29.198Z,11.48
2023-02-08T17:15:58.401Z,11.82
2023-02-08T17:18:25.008Z,11.23
2023-02-08T17:20:57.606Z,11.10
2023-02-08T17:23:24.208Z,14.93
2023-02-08T17:25:51.013Z,12.88
2023-02-08T17:28:20.240Z,14.70
2023-02-08T17:30:48.070Z,12.07
2023-02-08T17:33:23.694Z,13.60
2023-02-08T17:35:51.451Z,13.63
2023-02-08T17:38:19.008Z,10.68
2023-02-08T17:40:45.937Z,12.13
2023-02-08T17:43:13.382Z,11.95
2023-02-08T17:45:41.519Z,12.38
2023-02-08T17:48:08.413Z,13.93
2023-02-08T17:50:35.618Z,17.48
2023-02-08T17:53:03.872Z,15.35
2023-02-08T17:55:30.458Z,11.85
2023-02-08T17:57:57.164Z,14.32
2023-02-08T18:00:31.443Z,13.32
2023-02-08T18:03:01.189Z,13.23
2023-02-08T18:05:28.152Z,16.83
2023-02-08T18:07:56.309Z,11.52
2023-02-08T18:10:24.766Z,11.82
2023-02-08T18:12:51.439Z,10.95
2023-02-08T18:15:20.747Z,11.18
2023-02-08T18:17:48.189Z,9.52
2023-02-08T18:20:15.378Z,7.70
2023-02-08T18:22:43.236Z,7.40
2023-02-08T18:25:11.927Z,10.57
2023-02-08T18:27:39.051Z,7.82
2023-02-08T18:30:06.118Z,12.18
2023-02-08T18:32:32.635Z,11.15
2023-02-08T18:35:00.172Z,12.15
2023-02-08T18:37:27.984Z,7.97
2023-02-08T18:39:54.476Z,12.90
2023-02-08T18:42:21.018Z,9.07
2023-02-08T18:44:47.674Z,9.80
2023-02-08T18:47:14.271Z,11.25
2023-02-08T18:49:41.080Z,8.68
2023-02-08T18:52:09.841Z,10.35
2023-02-08T18:54:37.798Z,8.93
2023-02-08T18:57:06.078Z,12.27
2023-02-08T18:59:33.569Z,13.10
2023-02-08T19:02:01.843Z,10.57
2023-02-08T19:04:28.810Z,11.70
2023-02-08T19:06:55.468Z,11.80
2023-02-08T19:09:22.049Z,11.38
2023-02-08T19:11:48.840Z,9.93
2023-02-08T19:14:15.866Z,16.08
2023-02-08T19:16:43.190Z,14.43
2023-02-08T19:19:10.423Z,13.45
2023-02-08T19:21:37.311Z,14.88
2023-02-08T19:24:06.000Z,12.68
2023-02-08T19:26:39.450Z,11.15
2023-02-08T19:29:08.474Z,15.20
2023-02-08T19:31:35.442Z,11.85
2023-02-08T19:34:03.190Z,16.95
2023-02-08T19:36:35.771Z,12.32
2023-02-08T19:39:04.446Z,16.65
2023-02-08T19:41:36.398Z,14.73
2023-02-08T19:44:04.744Z,13.70
2023-02-08T19:46:32.967Z,15.88
2023-02-08T19:49:00.720Z,17.02
2023-02-08T19:51:30.276Z,16.45
2023-02-08T19:53:58.559Z,18.65
2023-02-08T19:56:27.388Z,16.80
2023-02-08T19:58:53.915Z,14.10
2023-02-08T20:01:22.101Z,16.63
2023-02-08T20:03:50.336Z,18.52
2023-02-08T20:06:27.453Z,15.68
2023-02-08T20:08:54.167Z,17.40
2023-02-08T20:11:28.556Z,18.50
2023-02-08T20:13:57.331Z,13.90
2023-02-08T20:16:24.610Z,13.93
2023-02-08T20:18:51.509Z,18.77
2023-02-08T20:21:18.732Z,22.25
2023-02-08T20:23:45.644Z,18.77
2023-02-08T20:26:16.657Z,14.50
2023-02-08T20:31:20.198Z,18.23
2023-02-08T20:33:48.570Z,17.63
2023-02-08T20:36:18.179Z,19.95
2023-02-08T20:38:45.310Z,13.07
2023-02-08T20:41:14.639Z,18.45
2023-02-08T20:43:42.483Z,18.90
2023-02-08T20:46:20.076Z,21.33
2023-02-08T20:48:46.616Z,16.52
2023-02-08T20:51:15.262Z,18.58
2023-02-08T20:53:43.780Z,17.23
2023-02-08T20:56:16.713Z,15.25
2023-02-08T20:58:44.578Z,15.05
2023-02-08T21:01:13.887Z,12.75
2023-02-08T21:03:40.531Z,19.00
2023-02-08T21:06:26.874Z,18.05
2023-02-08T21:08:55.532Z,14.55
2023-02-08T21:11:24.892Z,15.38
2023-02-08T21:13:51.581Z,16.23
2023-02-08T21:16:18.198Z,13.88
2023-02-08T21:18:45.756Z,17.58
2023-02-08T21:21:13.374Z,16.17
2023-02-08T21:23:39.920Z,19.80
2023-02-08T21:26:07.570Z,15.15
2023-02-08T21:28:34.880Z,15.35
2023-02-08T21:31:07.095Z,15.73
2023-02-08T21:33:34.049Z,18.00
2023-02-08T21:36:07.252Z,15.63
2023-02-08T21:38:33.757Z,20.25
2023-02-08T21:41:09.077Z,19.65
2023-02-08T21:43:37.365Z,18.27
2023-02-08T21:46:05.152Z,18.77
2023-02-08T21:48:52.158Z,20.70
2023-02-08T21:51:38.778Z,17.55
2023-02-08T21:54:31.977Z,19.63
2023-02-08T21:56:59.537Z,19.38
2023-02-08T21:59:26.388Z,18.60
2023-02-08T22:01:52.900Z,16.98
2023-02-08T22:04:19.396Z,17.17
2023-02-08T22:06:46.296Z,25.65
2023-02-08T22:09:12.915Z,13.70
2023-02-08T22:11:42.643Z,19.60
2023-02-08T22:14:10.713Z,12.63
2023-02-08T22:16:37.645Z,23.08
2023-02-08T22:19:04.757Z,23.65
2023-02-08T22:21:31.576Z,16.67
2023-02-08T22:23:58.175Z,17.42
2023-02-08T22:26:24.674Z,23.25
2023-02-08T22:28:51.490Z,20.50
2023-02-08T22:31:18.379Z,19.83
2023-02-08T22:33:44.926Z,19.77
2023-02-08T22:36:12.110Z,18.33
2023-02-08T22:38:38.985Z,20.20
2023-02-08T22:41:12.601Z,23.02
2023-02-08T22:43:39.367Z,18.33
2023-02-08T22:46:06.527Z,21.17
2023-02-08T22:48:34.007Z,29.55
2023-02-08T22:51:06.430Z,30.55
2023-02-08T22:53:32.972Z,20.85
2023-02-08T22:55:59.480Z,18.77
2023-02-08T22:58:26.003Z,27.92
2023-02-08T23:00:52.510Z,19.73
2023-02-08T23:03:20.554Z,23.73
2023-02-08T23:05:49.053Z,21.38
2023-02-08T23:08:17.666Z,23.00
2023-02-08T23:10:44.588Z,20.58
2023-02-08T23:13:11.541Z,18.88
2023-02-08T23:15:40.942Z,18.13
2023-02-08T23:18:08.354Z,19.27
2023-02-08T23:20:39.621Z,20.48
2023-02-08T23:23:06.335Z,13.25
2023-02-08T23:25:33.036Z,18.63
2023-02-08T23:27:59.688Z,17.67
2023-02-08T23:30:26.281Z,15.25
2023-02-08T23:32:53.117Z,13.50
2023-02-08T23:35:22.889Z,18.08
2023-02-08T23:37:49.932Z,21.92
2023-02-08T23:40:16.578Z,20.20
2023-02-08T23:42:43.158Z,21.80
2023-02-08T23:45:10.382Z,16.75
2023-02-08T23:47:37.641Z,14.27
2023-02-08T23:50:04.393Z,15.05
2023-02-08T23:52:30.924Z,12.82
2023-02-08T23:54:57.645Z,13.25
2023-02-08T23:57:24.221Z,22.05
2023-02-08T23:59:50.794Z,17.92
